Terminal Aerodrome Forecast
Issued by NWS

Home | Current Version | Previous Version | Text Only | Print | Product List | Glossary On
Versions: 1 2 3 4 5 6 7 8 9 10 11 12 13 14 15 16 17 18 19 20 21
000
FTUS45 KPSR 252334
TAFSDL
TAF
KSDL 252334Z 2600/2624 27020G28KT P6SM SCT250
      TEMPO 2600/2601 6SM BLDU
     FM260300 28014G22KT P6SM SCT250
     FM260500 33006KT P6SM FEW250
     FM261100 VRB04KT P6SM FEW250
     FM261800 25007KT P6SM FEW250=

USA.gov is the U.S. government's official web portal to all federal, state and local government web resources and services.